Time;durP1;ratioP1;P1;durP2;ratioP2;P2;SDS_P1;SDS_P2;PMS_P1;PMS_P2;Temp;Humidity;BMP_temperature;BMP_pressure;BME280_temperature;BME280_humidity;BME280_pressure;Samples;Min_cycle;Max_cycle;Signal;HPM_P1;HPM_P2
2021/04/14 00:00:21;;;;;;;3.90;1.10;;;;;;;2.46;71.83;102253.16;5083021;28;20664;-68
2021/04/14 00:02:48;;;;;;;3.23;1.00;;;;;;;2.44;71.99;102252.28;5073956;28;20548;-68
2021/04/14 00:05:16;;;;;;;6.00;1.40;;;;;;;2.42;71.30;102246.16;5081513;28;20215;-69
2021/04/14 00:07:43;;;;;;;3.57;1.30;;;;;;;2.40;71.69;102251.41;5073134;28;20213;-68
2021/04/14 00:10:13;;;;;;;5.23;1.07;;;;;;;2.39;71.56;102248.78;5078970;28;20674;-67
2021/04/14 00:12:39;;;;;;;2.67;1.20;;;;;;;2.38;71.74;102244.41;5081810;28;20217;-68
2021/04/14 00:15:09;;;;;;;4.60;1.20;;;;;;;2.36;72.04;102249.69;5086957;28;20226;-68
2021/04/14 00:17:35;;;;;;;4.80;1.10;;;;;;;2.34;72.04;102248.81;5089814;28;20204;-69
2021/04/14 00:20:01;;;;;;;4.00;1.30;;;;;;;2.33;72.00;102243.59;5091111;28;20261;-68
2021/04/14 00:22:27;;;;;;;2.87;1.10;;;;;;;2.32;71.73;102244.47;5087282;28;20740;-69
2021/04/14 00:24:53;;;;;;;7.73;2.90;;;;;;;2.29;71.80;102245.34;5093898;28;20292;-68
2021/04/14 00:27:20;;;;;;;5.13;1.13;;;;;;;2.27;71.98;102251.47;5085027;28;20253;-69
2021/04/14 00:29:46;;;;;;;5.23;1.07;;;;;;;2.25;71.89;102250.59;5075932;28;20201;-68
2021/04/14 00:32:12;;;;;;;2.83;1.70;;;;;;;2.24;71.93;102252.38;5081567;28;20238;-69
2021/04/14 00:34:38;;;;;;;4.43;1.53;;;;;;;2.23;72.05;102252.38;5077463;28;20201;-68
2021/04/14 00:37:04;;;;;;;1.90;1.20;;;;;;;2.21;72.21;102244.47;5082179;28;20215;-68
2021/04/14 00:39:30;;;;;;;3.47;1.23;;;;;;;2.20;72.32;102248.00;5080380;28;20227;-69
2021/04/14 00:41:56;;;;;;;6.90;1.30;;;;;;;2.19;72.13;102242.75;5094257;28;20588;-67
2021/04/14 00:44:24;;;;;;;3.23;1.13;;;;;;;2.18;72.50;102238.34;5094070;28;20212;-66
2021/04/14 00:46:50;;;;;;;4.03;1.30;;;;;;;2.17;72.26;102239.22;5089686;28;20204;-65
2021/04/14 00:49:16;;;;;;;3.53;1.27;;;;;;;2.16;72.46;102248.00;5080787;28;20201;-67
2021/04/14 00:51:43;;;;;;;4.57;1.50;;;;;;;2.14;72.55;102244.53;5091044;28;20202;-65
2021/04/14 00:54:10;;;;;;;6.47;1.60;;;;;;;2.13;72.41;102238.41;5092618;28;20231;-67
2021/04/14 00:56:36;;;;;;;4.53;1.40;;;;;;;2.13;72.70;102245.41;5086343;28;20200;-67
2021/04/14 00:59:02;;;;;;;2.47;1.53;;;;;;;2.09;72.32;102240.16;5088352;28;20269;-67
2021/04/14 01:01:29;;;;;;;4.20;1.00;;;;;;;2.08;72.77;102246.28;5092582;28;20223;-68
2021/04/14 01:03:55;;;;;;;5.47;1.40;;;;;;;2.07;72.53;102241.91;5083945;28;20239;-67
2021/04/14 01:06:25;;;;;;;4.30;1.47;;;;;;;2.06;72.69;102240.16;5092391;28;20197;-67
2021/04/14 01:08:51;;;;;;;5.33;1.67;;;;;;;2.03;72.80;102242.78;5089908;28;20224;-67
2021/04/14 01:11:18;;;;;;;1.77;1.00;;;;;;;2.04;73.01;102244.53;5089053;28;20207;-69
2021/04/14 01:13:45;;;;;;;2.70;1.37;;;;;;;2.04;72.76;102233.16;5086054;28;20225;-65
2021/04/14 01:16:12;;;;;;;2.77;1.70;;;;;;;2.05;72.80;102237.53;5088259;28;20200;-68
2021/04/14 01:18:40;;;;;;;3.53;1.40;;;;;;;2.05;72.90;102235.78;5082889;28;20207;-65
2021/04/14 01:21:10;;;;;;;5.97;1.57;;;;;;;2.07;73.33;102238.41;5084937;28;20224;-66
2021/04/14 01:23:37;;;;;;;6.00;1.70;;;;;;;2.08;73.57;102235.78;5083245;28;20225;-66
2021/04/14 01:26:04;;;;;;;4.50;1.10;;;;;;;2.09;73.55;102234.91;5084249;28;20200;-67
2021/04/14 01:28:33;;;;;;;3.80;1.57;;;;;;;2.10;73.50;102227.88;5083067;28;20263;-66
2021/04/14 01:31:00;;;;;;;3.90;1.47;;;;;;;2.12;73.39;102230.50;5091113;28;20712;-67
2021/04/14 01:33:30;;;;;;;4.27;1.37;;;;;;;2.11;73.78;102229.63;5084536;28;20229;-66
2021/04/14 01:35:57;;;;;;;3.10;1.13;;;;;;;2.12;73.42;102228.75;5086891;28;20263;-67
2021/04/14 01:38:23;;;;;;;8.00;1.40;;;;;;;2.13;73.75;102229.63;5088349;28;20207;-67
2021/04/14 01:40:50;;;;;;;3.37;1.27;;;;;;;2.13;73.87;102224.38;5093104;28;20207;-67
2021/04/14 01:43:16;;;;;;;6.13;1.27;;;;;;;2.15;74.16;102230.50;5092183;28;20220;-67
2021/04/14 01:45:45;;;;;;;6.83;1.50;;;;;;;2.15;73.77;102231.34;5093033;28;20208;-67
2021/04/14 01:48:12;;;;;;;2.77;1.27;;;;;;;2.16;74.15;102234.84;5092278;28;20216;-68
2021/04/14 01:50:39;;;;;;;6.20;1.37;;;;;;;2.14;73.92;102228.75;5085963;28;20208;-67
2021/04/14 01:53:08;;;;;;;6.20;1.33;;;;;;;2.15;73.97;102233.13;5080337;28;20217;-67
2021/04/14 01:55:35;;;;;;;5.90;1.40;;;;;;;2.13;74.18;102238.41;5076796;28;20197;-67
2021/04/14 01:58:02;;;;;;;6.57;1.60;;;;;;;2.13;73.85;102234.88;5081177;28;20197;-67
2021/04/14 02:00:31;;;;;;;5.83;1.40;;;;;;;2.11;73.45;102237.53;5075500;28;20205;-67
2021/04/14 02:02:57;;;;;;;3.37;1.27;;;;;;;2.11;73.65;102237.53;5074212;28;20269;-66
2021/04/14 02:05:25;;;;;;;2.57;1.20;;;;;;;2.11;74.14;102234.91;5082349;28;20201;-67
2021/04/14 02:07:51;;;;;;;5.13;1.60;;;;;;;2.10;73.58;102238.41;5079027;28;20201;-67
2021/04/14 02:10:18;;;;;;;6.50;1.37;;;;;;;2.07;74.05;102231.41;5080362;28;20303;-65
2021/04/14 02:12:44;;;;;;;3.97;1.50;;;;;;;2.05;73.98;102233.16;5080503;28;20935;-66
2021/04/14 02:15:15;;;;;;;5.33;1.40;;;;;;;2.05;74.06;102229.66;5076993;28;20200;-66
2021/04/14 02:17:41;;;;;;;4.70;1.97;;;;;;;2.03;74.19;102237.53;5082555;28;20235;-67
2021/04/14 02:20:09;;;;;;;4.53;1.80;;;;;;;2.02;74.18;102233.16;5078795;28;20239;-67
2021/04/14 02:22:36;;;;;;;4.73;1.50;;;;;;;2.02;73.98;102233.16;5079869;28;20619;-67
2021/04/14 02:25:03;;;;;;;2.07;1.20;;;;;;;2.02;74.32;102238.41;5072231;28;20258;-69
2021/04/14 02:27:29;;;;;;;6.10;1.57;;;;;;;2.00;74.29;102229.66;5085676;28;20224;-67
2021/04/14 02:29:55;;;;;;;3.63;1.50;;;;;;;2.00;74.40;102228.78;5079957;28;20202;-67
2021/04/14 02:32:22;;;;;;;3.50;1.80;;;;;;;1.99;74.45;102230.53;5077305;28;20307;-66
2021/04/14 02:34:48;;;;;;;3.07;1.67;;;;;;;1.97;74.32;102221.78;5079001;28;20201;-66
2021/04/14 02:37:14;;;;;;;4.77;1.53;;;;;;;1.96;74.13;102230.56;5087814;28;20668;-67
2021/04/14 02:39:40;;;;;;;4.37;1.43;;;;;;;1.94;74.61;102219.19;5073861;28;20230;-67
2021/04/14 02:42:06;;;;;;;4.20;1.50;;;;;;;1.92;74.35;102231.44;5079342;28;20312;-66
2021/04/14 02:44:32;;;;;;;4.57;1.67;;;;;;;1.91;74.33;102227.06;5078562;28;20285;-64
2021/04/14 02:46:58;;;;;;;4.40;1.80;;;;;;;1.88;74.37;102221.81;5083972;28;20672;-66
2021/04/14 02:49:25;;;;;;;3.73;1.60;;;;;;;1.87;74.06;102221.81;5078425;28;20200;-68
2021/04/14 02:51:51;;;;;;;4.33;1.60;;;;;;;1.85;74.38;102213.94;5078486;28;20454;-68
2021/04/14 02:54:18;;;;;;;4.23;2.10;;;;;;;1.84;74.23;102212.19;5077157;28;20227;-68
2021/04/14 02:56:44;;;;;;;4.03;1.50;;;;;;;1.83;74.11;102217.44;5093512;28;20216;-68
2021/04/14 02:59:10;;;;;;;2.43;1.63;;;;;;;1.80;74.93;102215.69;5081264;28;20224;-68
2021/04/14 03:01:36;;;;;;;5.30;1.80;;;;;;;1.79;74.65;102213.97;5078960;28;20261;-67
2021/04/14 03:04:02;;;;;;;4.73;1.60;;;;;;;1.77;74.72;102205.22;5107625;23;20232;-68
2021/04/14 03:06:29;;;;;;;6.47;1.83;;;;;;;1.76;74.54;102207.84;5088708;28;20265;-67
2021/04/14 03:08:55;;;;;;;7.50;1.70;;;;;;;1.73;74.79;102213.97;5091404;28;20688;-67
2021/04/14 03:11:21;;;;;;;3.40;1.50;;;;;;;1.72;74.47;102201.72;5091483;28;20200;-67
2021/04/14 03:13:47;;;;;;;7.27;2.10;;;;;;;1.70;74.44;102208.72;5067947;28;20270;-67
2021/04/14 03:16:14;;;;;;;4.13;1.93;;;;;;;1.69;75.14;102213.09;5055761;28;20243;-68
2021/04/14 03:18:40;;;;;;;5.27;2.00;;;;;;;1.67;74.45;102208.72;5066590;28;20219;-67
2021/04/14 03:21:06;;;;;;;5.10;1.70;;;;;;;1.64;74.95;102206.97;5060673;28;20237;-67
2021/04/14 03:23:33;;;;;;;4.43;1.70;;;;;;;1.63;75.13;102205.22;5056622;28;20710;-68
2021/04/14 03:25:59;;;;;;;5.13;2.23;;;;;;;1.61;75.09;102209.59;5059523;28;20201;-67
2021/04/14 03:28:25;;;;;;;4.03;1.83;;;;;;;1.61;75.01;102214.00;5060113;28;20608;-67
2021/04/14 03:30:51;;;;;;;7.73;2.00;;;;;;;1.58;74.56;102208.75;5060458;28;20206;-68
2021/04/14 03:33:18;;;;;;;2.70;1.73;;;;;;;1.54;75.06;102207.88;5062358;28;20741;-67
2021/04/14 03:35:44;;;;;;;4.83;2.07;;;;;;;1.52;75.09;102203.50;5062408;28;20212;-68
2021/04/14 03:38:10;;;;;;;7.33;2.60;;;;;;;1.49;75.05;102207.00;5059443;28;20216;-68
2021/04/14 03:40:38;;;;;;;2.90;2.00;;;;;;;1.48;75.42;102204.38;5060266;28;20283;-67
2021/04/14 03:43:04;;;;;;;5.90;1.90;;;;;;;1.46;75.35;102211.38;5059418;28;20311;-68
2021/04/14 03:45:36;;;;;;;4.13;2.10;;;;;;;1.46;75.55;102211.38;5055757;28;20343;-67
2021/04/14 03:48:03;;;;;;;5.30;2.20;;;;;;;1.45;75.69;102209.63;5058561;28;20197;-68
2021/04/14 03:50:29;;;;;;;4.30;1.67;;;;;;;1.44;75.66;102200.88;5057401;28;20210;-67
2021/04/14 03:52:55;;;;;;;2.67;1.73;;;;;;;1.44;75.69;102200.00;5061654;28;20270;-68
2021/04/14 03:55:23;;;;;;;3.73;1.97;;;;;;;1.43;75.71;102206.16;5070401;28;20205;-68
2021/04/14 03:57:50;;;;;;;6.10;2.07;;;;;;;1.41;75.85;102206.16;5069369;28;20201;-66
2021/04/14 04:00:17;;;;;;;10.03;2.50;;;;;;;1.39;75.62;102208.78;5069069;28;20197;-68
2021/04/14 04:02:43;;;;;;;4.97;2.27;;;;;;;1.37;76.01;102205.28;5059653;28;20235;-68
2021/04/14 04:05:11;;;;;;;6.17;2.47;;;;;;;1.37;75.80;102209.66;5063060;28;20201;-68
2021/04/14 04:07:37;;;;;;;4.37;2.10;;;;;;;1.38;76.03;102206.16;5057667;28;20581;-67
2021/04/14 04:10:05;;;;;;;5.77;2.80;;;;;;;1.36;76.30;102207.91;5060084;28;21601;-67
2021/04/14 04:12:31;;;;;;;5.87;2.60;;;;;;;1.35;76.05;102201.78;5058228;28;20542;-67
2021/04/14 04:14:58;;;;;;;11.40;4.43;;;;;;;1.36;76.25;102205.28;5062344;28;20225;-67
2021/04/14 04:17:25;;;;;;;6.23;3.33;;;;;;;1.36;76.34;102200.03;5060356;28;20206;-67
2021/04/14 04:19:51;;;;;;;5.23;2.60;;;;;;;1.35;76.19;102204.41;5057345;28;20284;-67
2021/04/14 04:22:19;;;;;;;7.70;3.27;;;;;;;1.36;76.28;102206.16;5061824;28;20233;-67
2021/04/14 04:24:46;;;;;;;7.83;2.93;;;;;;;1.36;76.35;102208.78;5056173;28;20545;-68
2021/04/14 04:27:12;;;;;;;5.00;2.60;;;;;;;1.37;76.40;102210.53;5064664;28;20205;-68
2021/04/14 04:29:38;;;;;;;6.73;3.43;;;;;;;1.38;76.70;102212.28;5066695;28;20201;-67
2021/04/14 04:32:07;;;;;;;5.90;3.50;;;;;;;1.40;76.84;102212.28;5060205;28;20204;-67
2021/04/14 04:34:33;;;;;;;5.97;3.50;;;;;;;1.41;76.81;102213.16;5060035;28;20228;-67
2021/04/14 04:36:58;;;;;;;6.33;3.90;;;;;;;1.44;76.96;102223.63;5055770;28;20636;-67
2021/04/14 04:39:25;;;;;;;8.57;4.10;;;;;;;1.44;76.85;102227.13;5053309;28;20218;-67
2021/04/14 04:41:51;;;;;;;12.47;7.10;;;;;;;1.45;76.67;102222.75;5065360;28;20339;-67
2021/04/14 04:44:17;;;;;;;12.07;7.70;;;;;;;1.44;76.97;102231.50;5058294;28;20221;-68
2021/04/14 04:46:43;;;;;;;10.97;7.30;;;;;;;1.44;77.03;102228.88;5059646;28;20509;-67
2021/04/14 04:49:10;;;;;;;10.83;7.17;;;;;;;1.44;76.92;102231.50;5059882;28;20562;-67
2021/04/14 04:51:36;;;;;;;9.40;5.57;;;;;;;1.43;76.86;102230.66;5057663;28;20208;-68
2021/04/14 04:54:02;;;;;;;6.67;4.47;;;;;;;1.43;76.84;102235.03;5060605;28;20243;-67
2021/04/14 04:56:28;;;;;;;7.53;3.50;;;;;;;1.44;76.79;102231.50;5054694;28;20213;-67
2021/04/14 04:58:54;;;;;;;7.40;3.80;;;;;;;1.42;77.20;102238.53;5053582;28;20263;-68
2021/04/14 05:01:20;;;;;;;6.20;3.37;;;;;;;1.43;77.25;102235.91;5055510;28;20315;-67
2021/04/14 05:03:46;;;;;;;4.73;2.87;;;;;;;1.43;77.34;102240.28;5055898;28;20277;-68
2021/04/14 05:06:13;;;;;;;9.57;2.70;;;;;;;1.44;77.25;102239.38;5063706;28;20209;-68
2021/04/14 05:08:39;;;;;;;8.50;2.87;;;;;;;1.44;77.48;102244.63;5057084;28;20288;-67
2021/04/14 05:11:05;;;;;;;3.50;2.80;;;;;;;1.45;77.51;102241.13;5058105;28;20335;-68
2021/04/14 05:13:31;;;;;;;8.87;3.80;;;;;;;1.46;77.33;102245.50;5057568;28;20709;-67
2021/04/14 05:15:57;;;;;;;8.60;4.57;;;;;;;1.47;77.31;102247.25;5054832;28;20233;-68
2021/04/14 05:18:23;;;;;;;11.47;4.50;;;;;;;1.49;77.62;102245.50;5054805;28;20679;-67
2021/04/14 05:20:50;;;;;;;8.63;4.60;;;;;;;1.49;77.41;102249.00;5057473;28;20206;-67
2021/04/14 05:23:16;;;;;;;6.53;4.00;;;;;;;1.50;77.45;102255.13;5057717;28;20233;-67
2021/04/14 05:25:45;;;;;;;8.70;3.80;;;;;;;1.51;77.54;102257.75;5061334;28;20219;-67
2021/04/14 05:28:13;;;;;;;5.93;3.40;;;;;;;1.53;77.58;102261.25;5066282;28;20228;-67
2021/04/14 05:30:40;;;;;;;8.30;3.53;;;;;;;1.55;77.64;102258.66;5062895;28;20224;-68
2021/04/14 05:33:07;;;;;;;9.33;3.50;;;;;;;1.58;77.76;102262.16;5066795;28;20520;-67
2021/04/14 05:35:33;;;;;;;6.53;3.87;;;;;;;1.64;78.04;102261.25;5068383;28;20216;-69
2021/04/14 05:37:59;;;;;;;6.53;3.90;;;;;;;1.71;77.54;102263.88;5058241;28;20205;-68
2021/04/14 05:40:26;;;;;;;6.90;3.17;;;;;;;1.82;77.91;102268.22;5053021;28;20293;-69
2021/04/14 05:42:52;;;;;;;4.90;3.30;;;;;;;1.92;78.00;102268.22;5056051;28;20251;-69
2021/04/14 05:45:27;;;;;;;9.10;3.43;;;;;;;2.03;77.70;102276.94;5057384;28;20659;-69
2021/04/14 05:47:53;;;;;;;6.97;3.43;;;;;;;2.16;77.71;102274.28;5055178;28;20205;-68
2021/04/14 05:50:21;;;;;;;5.17;3.33;;;;;;;2.25;77.71;102266.38;5055722;28;20613;-69
2021/04/14 05:52:48;;;;;;;5.70;3.00;;;;;;;2.36;77.92;102281.22;5056864;28;20221;-69
2021/04/14 05:55:15;;;;;;;3.60;2.90;;;;;;;2.49;77.79;102270.69;5057563;28;20224;-69
2021/04/14 05:57:41;;;;;;;8.43;3.50;;;;;;;2.60;78.04;102267.13;5069498;28;20212;-69
2021/04/14 06:00:11;;;;;;;7.23;2.73;;;;;;;2.72;77.66;102266.16;5068827;28;20207;-70
2021/04/14 06:02:40;;;;;;;5.73;3.50;;;;;;;2.82;77.90;102269.63;5057943;28;20229;-70
2021/04/14 06:05:06;;;;;;;6.37;4.17;;;;;;;2.90;76.85;102271.31;5059109;28;20201;-67
2021/04/14 06:07:32;;;;;;;11.83;4.30;;;;;;;2.96;77.49;102278.31;5054135;28;20594;-70
2021/04/14 06:09:58;;;;;;;10.80;4.70;;;;;;;3.02;77.22;102268.66;5057025;28;20296;-69
2021/04/14 06:12:24;;;;;;;10.67;4.37;;;;;;;3.10;76.82;102271.19;5054285;28;20283;-69
2021/04/14 06:14:51;;;;;;;12.07;4.30;;;;;;;3.19;76.60;102276.41;5055489;28;20204;-67
2021/04/14 06:17:17;;;;;;;11.80;4.60;;;;;;;3.28;76.93;102275.47;5059689;28;20197;-69
2021/04/14 06:19:44;;;;;;;11.40;4.07;;;;;;;3.42;76.94;102287.63;5055253;28;20705;-70
2021/04/14 06:22:10;;;;;;;9.20;4.43;;;;;;;3.56;77.00;102281.41;5056242;28;20321;-69
2021/04/14 06:24:36;;;;;;;9.00;3.63;;;;;;;3.70;75.97;102283.03;5053820;28;20256;-70
2021/04/14 06:27:05;;;;;;;13.10;3.87;;;;;;;3.80;76.27;102286.44;5055964;28;20205;-69
2021/04/14 06:29:31;;;;;;;9.47;4.10;;;;;;;3.89;75.64;102286.38;5057901;28;20197;-69
2021/04/14 06:31:59;;;;;;;7.10;3.80;;;;;;;3.98;75.00;102285.38;5055196;28;20212;-69
2021/04/14 06:34:26;;;;;;;7.57;3.57;;;;;;;4.04;74.80;102282.69;5057972;28;20228;-69
2021/04/14 06:36:55;;;;;;;8.63;3.63;;;;;;;4.14;75.03;102276.41;5061335;28;20468;-69
2021/04/14 06:39:25;;;;;;;3.40;2.73;;;;;;;4.27;74.63;102283.34;5064050;28;20223;-70
2021/04/14 06:42:04;;;;;;;4.93;2.60;;;;;;;4.37;74.26;102278.81;5063693;28;20557;-69
2021/04/14 06:44:49;;;;;;;7.33;2.93;;;;;;;4.44;74.14;102277.84;5064412;28;20224;-69
2021/04/14 06:47:22;;;;;;;3.97;2.60;;;;;;;4.56;74.46;102268.91;5066866;28;20201;-69
2021/04/14 06:49:55;;;;;;;5.77;2.50;;;;;;;4.71;73.73;102277.50;5066292;28;20562;-68
2021/04/14 06:52:27;;;;;;;7.87;2.80;;;;;;;4.80;73.58;102274.75;5061722;28;20201;-69
2021/04/14 06:54:56;;;;;;;8.67;2.43;;;;;;;4.85;73.42;102275.53;5067454;28;20204;-70
2021/04/14 06:57:26;;;;;;;7.97;2.30;;;;;;;4.88;72.90;102270.22;5061463;28;20205;-70
2021/04/14 06:59:58;;;;;;;5.97;2.90;;;;;;;4.96;72.96;102275.41;5067749;28;20201;-70
2021/04/14 07:02:31;;;;;;;5.60;2.40;;;;;;;5.07;72.59;102270.81;5066705;28;20232;-68
2021/04/14 07:05:02;;;;;;;6.50;2.33;;;;;;;5.19;72.39;102277.72;5060439;28;20206;-70
2021/04/14 07:07:31;;;;;;;7.57;2.47;;;;;;;5.31;72.28;102274.88;5060485;28;20198;-67
2021/04/14 07:10:05;;;;;;;6.30;2.53;;;;;;;5.45;72.49;102259.66;5062292;28;20200;-70
2021/04/14 07:12:31;;;;;;;8.50;3.77;;;;;;;5.58;71.70;102274.41;5056437;28;20200;-70
2021/04/14 07:15:00;;;;;;;9.63;3.20;;;;;;;5.66;71.29;102270.78;5055190;28;20217;-69
2021/04/14 07:17:39;;;;;;;8.00;2.73;;;;;;;5.77;71.52;102267.03;5057216;28;20214;-69
2021/04/14 07:20:23;;;;;;;7.23;2.30;;;;;;;5.92;70.74;102260.63;5055518;28;20200;-69
2021/04/14 07:22:59;;;;;;;5.37;2.60;;;;;;;6.05;70.58;102270.09;5060300;28;20225;-69
2021/04/14 07:25:31;;;;;;;9.10;2.63;;;;;;;6.19;70.66;102262.75;5058602;28;20196;-68
2021/04/14 07:28:04;;;;;;;7.47;2.50;;;;;;;6.27;69.71;102267.88;5055792;28;20463;-69
2021/04/14 07:30:38;;;;;;;8.37;2.60;;;;;;;6.32;69.61;102259.88;5060436;28;20201;-69
2021/04/14 07:33:16;;;;;;;5.87;2.80;;;;;;;6.39;69.75;102265.00;5058944;28;20225;-69
2021/04/14 07:35:50;;;;;;;7.20;2.40;;;;;;;6.45;68.73;102261.38;5061893;28;20213;-69
2021/04/14 07:38:25;;;;;;;9.53;2.93;;;;;;;6.49;68.53;102258.63;5062089;28;20206;-70
2021/04/14 07:41:03;;;;;;;5.97;2.30;;;;;;;6.53;68.58;102257.66;5066507;28;20209;-68
2021/04/14 07:43:38;;;;;;;6.53;2.20;;;;;;;6.53;68.05;102256.78;5061611;28;20228;-69
2021/04/14 07:46:08;;;;;;;6.47;2.40;;;;;;;6.51;67.33;102263.88;5061706;28;20201;-69
2021/04/14 07:48:39;;;;;;;9.50;2.93;;;;;;;6.51;67.62;102258.59;5061529;28;20201;-66
2021/04/14 07:51:10;;;;;;;6.97;2.03;;;;;;;6.51;67.02;102256.81;5061964;28;20206;-67
2021/04/14 07:53:38;;;;;;;4.53;2.30;;;;;;;6.55;67.35;102254.97;5062007;28;20222;-67
2021/04/14 07:56:06;;;;;;;5.77;2.23;;;;;;;6.56;67.10;102254.94;5059938;28;20212;-69
2021/04/14 07:58:33;;;;;;;6.33;2.40;;;;;;;6.50;66.36;102254.19;5058333;28;20607;-68
2021/04/14 08:01:12;;;;;;;6.67;2.53;;;;;;;6.44;66.37;102255.22;5055262;28;20206;-69
2021/04/14 08:03:39;;;;;;;7.90;2.47;;;;;;;6.42;66.61;102258.78;5054168;28;20229;-69
2021/04/14 08:06:11;;;;;;;9.97;2.97;;;;;;;6.37;65.88;102260.66;5059487;28;20216;-69
2021/04/14 08:08:38;;;;;;;4.50;2.80;;;;;;;6.39;66.56;102253.56;5058686;28;20197;-69
2021/04/14 08:11:07;;;;;;;9.23;3.17;;;;;;;6.46;66.99;102247.22;5055254;28;20201;-69
2021/04/14 08:13:39;;;;;;;9.57;2.77;;;;;;;6.63;67.28;102242.44;5061135;28;20224;-69
2021/04/14 08:16:17;;;;;;;9.07;3.30;;;;;;;6.80;66.57;102245.63;5053228;28;20247;-68
2021/04/14 08:18:55;;;;;;;7.20;2.80;;;;;;;6.96;65.91;102240.84;5053724;28;20239;-68
2021/04/14 08:21:31;;;;;;;6.30;2.30;;;;;;;7.09;65.01;102239.63;5056018;28;20235;-69
2021/04/14 08:24:00;;;;;;;6.67;2.20;;;;;;;7.15;63.93;102233.34;5050411;28;20221;-69
2021/04/14 08:26:29;;;;;;;7.97;2.50;;;;;;;7.29;64.02;102236.50;5057256;28;20671;-68
2021/04/14 08:29:07;;;;;;;8.77;2.50;;;;;;;7.35;62.87;102241.63;5054341;28;20209;-69
2021/04/14 08:31:44;;;;;;;8.73;2.73;;;;;;;7.40;62.41;102238.88;5055929;28;20208;-69
2021/04/14 08:34:16;;;;;;;6.53;2.33;;;;;;;7.43;61.79;102239.69;5055533;28;20233;-68
2021/04/14 08:36:48;;;;;;;6.87;2.47;;;;;;;7.47;61.61;102244.00;5054633;28;20690;-69
2021/04/14 08:39:18;;;;;;;8.10;2.77;;;;;;;7.56;61.66;102240.22;5057566;28;20197;-69
2021/04/14 08:41:45;;;;;;;7.23;1.80;;;;;;;7.59;61.22;102237.50;5056288;28;20244;-68
2021/04/14 08:44:14;;;;;;;6.47;1.53;;;;;;;7.53;60.08;102241.19;5059606;28;20697;-67
2021/04/14 08:46:43;;;;;;;4.23;1.60;;;;;;;7.46;60.66;102244.91;5059545;28;20210;-69
2021/04/14 08:49:15;;;;;;;4.50;1.60;;;;;;;7.46;60.37;102244.03;5058187;28;20212;-69
2021/04/14 08:51:43;;;;;;;4.97;1.80;;;;;;;7.44;59.65;102244.06;5061617;28;20619;-69
2021/04/14 08:54:14;;;;;;;6.23;1.60;;;;;;;7.44;59.95;102249.38;5060801;28;20710;-68
2021/04/14 08:56:40;;;;;;;8.30;2.50;;;;;;;7.40;59.73;102242.41;5056563;28;20691;-68
2021/04/14 08:59:08;;;;;;;9.60;2.23;;;;;;;7.43;60.52;102239.69;5055734;28;20205;-69
2021/04/14 09:01:34;;;;;;;6.57;2.83;;;;;;;7.46;60.09;102244.91;5059918;28;20205;-69
2021/04/14 09:04:01;;;;;;;9.57;3.07;;;;;;;7.47;60.17;102246.66;5060515;28;20595;-68
2021/04/14 09:06:32;;;;;;;6.37;2.20;;;;;;;7.50;60.09;102248.38;5061988;28;20239;-68
2021/04/14 09:09:02;;;;;;;7.27;1.90;;;;;;;7.50;60.05;102235.09;5061652;28;20201;-68
2021/04/14 09:11:30;;;;;;;7.53;2.07;;;;;;;7.49;60.04;102233.38;5058835;28;20205;-68
2021/04/14 09:14:03;;;;;;;5.27;2.03;;;;;;;7.52;60.30;102234.16;5056007;28;20225;-68
2021/04/14 09:16:34;;;;;;;7.67;2.00;;;;;;;7.65;59.71;102234.72;5058924;28;20204;-68
2021/04/14 09:19:11;;;;;;;4.00;1.30;;;;;;;7.85;60.09;102224.44;5062785;28;20211;-68
2021/04/14 09:21:47;;;;;;;6.93;1.63;;;;;;;7.99;58.54;102227.59;5062730;28;20212;-68
2021/04/14 09:24:33;;;;;;;4.23;1.70;;;;;;;8.13;57.64;102232.50;5061507;28;20603;-68
2021/04/14 09:27:00;;;;;;;6.67;1.90;;;;;;;8.20;57.04;102228.78;5060155;28;20205;-67
2021/04/14 09:29:32;;;;;;;7.80;2.37;;;;;;;8.22;56.55;102220.78;5057800;28;20289;-68
2021/04/14 09:32:08;;;;;;;5.73;1.70;;;;;;;8.23;56.81;102218.06;5056826;28;20689;-68
2021/04/14 09:34:36;;;;;;;8.83;1.53;;;;;;;8.28;55.76;102215.28;5062969;28;20227;-68
2021/04/14 09:37:08;;;;;;;5.93;1.40;;;;;;;8.28;55.75;102221.44;5059698;28;20216;-68
2021/04/14 09:39:40;;;;;;;3.07;1.50;;;;;;;8.27;54.61;102214.41;5060646;28;20671;-68
2021/04/14 09:42:16;;;;;;;5.43;1.40;;;;;;;8.25;54.54;102212.69;5057199;28;20316;-68
2021/04/14 09:44:44;;;;;;;3.57;1.10;;;;;;;8.24;54.20;102214.47;5061611;28;20209;-67
2021/04/14 09:47:18;;;;;;;4.53;1.33;;;;;;;8.20;53.41;102217.28;5061593;28;20205;-68
2021/04/14 09:49:47;;;;;;;3.67;1.33;;;;;;;8.14;53.72;102214.81;5059627;28;20207;-68
2021/04/14 09:52:25;;;;;;;3.50;1.20;;;;;;;8.06;53.79;102215.00;5058760;28;20198;-68
2021/04/14 09:54:57;;;;;;;4.80;1.43;;;;;;;8.02;53.94;102218.69;5060060;28;20208;-68
2021/04/14 09:57:27;;;;;;;10.67;2.47;;;;;;;7.94;53.81;102218.88;5057359;28;20209;-67
2021/04/14 09:59:54;;;;;;;5.90;1.90;;;;;;;7.91;54.32;102207.47;5058163;28;20566;-68
2021/04/14 10:02:22;;;;;;;5.97;1.50;;;;;;;7.88;54.66;102204.94;5057085;28;20217;-66
2021/04/14 10:04:50;;;;;;;9.67;2.23;;;;;;;7.87;55.42;102205.84;5058512;28;20557;-68
2021/04/14 10:07:20;;;;;;;5.47;1.40;;;;;;;7.84;55.29;102203.28;5057768;28;20221;-68
2021/04/14 10:09:47;;;;;;;3.53;1.53;;;;;;;7.84;55.21;102195.31;5059063;28;20207;-67
2021/04/14 10:12:18;;;;;;;3.13;1.20;;;;;;;7.92;55.89;102201.25;5056750;28;20556;-68
2021/04/14 10:14:47;;;;;;;3.53;1.27;;;;;;;8.06;55.35;102201.75;5059270;28;20220;-68
2021/04/14 10:17:14;;;;;;;3.20;1.47;;;;;;;8.23;55.12;102194.19;5056671;28;20201;-68
2021/04/14 10:19:41;;;;;;;4.80;1.97;;;;;;;8.45;55.09;102193.56;5057881;28;20636;-66
2021/04/14 10:22:10;;;;;;;5.07;1.90;;;;;;;8.62;54.24;102188.63;5060451;28;20258;-69
2021/04/14 10:24:37;;;;;;;3.80;1.70;;;;;;;8.71;54.09;102209.59;5059284;28;20223;-67
2021/04/14 10:27:05;;;;;;;2.90;1.20;;;;;;;8.67;53.19;102214.13;5059957;28;20206;-67
2021/04/14 10:29:38;;;;;;;2.93;1.10;;;;;;;8.60;53.39;102214.34;5058704;28;20209;-67
2021/04/14 10:32:05;;;;;;;3.37;1.00;;;;;;;8.48;52.83;102220.91;5059084;28;20212;-69
2021/04/14 10:34:34;;;;;;;0.87;0.50;;;;;;;8.31;52.99;102218.72;5059681;28;20212;-67
2021/04/14 10:37:13;;;;;;;0.90;0.30;;;;;;;7.99;53.84;102221.41;5056911;28;20259;-66
2021/04/14 10:39:39;;;;;;;2.43;0.70;;;;;;;7.71;54.87;102233.66;5062256;28;20213;-67
2021/04/14 10:42:15;;;;;;;2.37;0.77;;;;;;;7.48;55.92;102235.16;5053773;28;20225;-67
2021/04/14 10:44:41;;;;;;;1.10;0.43;;;;;;;7.27;57.04;102228.59;5059490;28;20591;-67
2021/04/14 10:47:11;;;;;;;1.33;0.90;;;;;;;7.10;57.26;102229.91;5057962;28;20292;-67
2021/04/14 10:49:38;;;;;;;1.20;1.10;;;;;;;6.96;57.68;102230.25;5061930;28;20233;-67
2021/04/14 10:52:13;;;;;;;2.43;1.40;;;;;;;6.91;59.12;102226.81;5052862;28;20197;-67
2021/04/14 10:54:45;;;;;;;2.83;1.70;;;;;;;6.87;59.72;102220.72;5056567;28;20311;-67
2021/04/14 10:57:18;;;;;;;2.10;1.53;;;;;;;6.84;60.34;102215.47;5058912;28;20205;-68
2021/04/14 10:59:47;;;;;;;2.80;1.70;;;;;;;6.79;61.05;102206.78;5057459;28;20583;-68
2021/04/14 11:02:21;;;;;;;4.67;1.77;;;;;;;6.78;61.10;102207.69;5057241;28;20263;-68
2021/04/14 11:04:49;;;;;;;2.33;1.40;;;;;;;6.76;62.20;102204.22;5059076;28;20196;-70
2021/04/14 11:07:21;;;;;;;3.50;1.10;;;;;;;6.77;62.39;102198.00;5057779;28;20206;-67
2021/04/14 11:09:48;;;;;;;2.50;1.10;;;;;;;6.80;62.85;102195.31;5061131;28;20212;-67
2021/04/14 11:12:18;;;;;;;3.23;1.20;;;;;;;6.93;64.23;102185.28;5058443;28;20217;-65
2021/04/14 11:14:49;;;;;;;2.03;1.40;;;;;;;7.08;64.63;102191.97;5056403;28;20200;-65
2021/04/14 11:17:19;;;;;;;4.00;1.10;;;;;;;7.21;64.67;102183.69;5057468;28;20206;-65
2021/04/14 11:19:57;;;;;;;4.27;1.60;;;;;;;7.36;64.63;102174.47;5056084;28;20200;-66
2021/04/14 11:22:24;;;;;;;3.27;1.63;;;;;;;7.47;64.54;102180.38;5056346;28;20228;-66
2021/04/14 11:24:53;;;;;;;4.20;1.30;;;;;;;7.61;64.18;102169.41;5056604;28;20697;-66
2021/04/14 11:27:23;;;;;;;5.03;3.30;;;;;;;7.71;63.08;102167.34;5058386;28;20322;-66
2021/04/14 11:29:51;;;;;;;5.00;2.20;;;;;;;7.77;63.04;102162.78;5066414;28;20252;-64
2021/04/14 11:32:20;;;;;;;7.17;2.20;;;;;;;7.90;62.12;102165.94;5077045;28;20205;-64
2021/04/14 11:34:58;;;;;;;3.30;2.10;;;;;;;8.05;62.23;102164.66;5069087;28;20201;-66
2021/04/14 11:37:27;;;;;;;2.93;2.10;;;;;;;8.17;61.43;102159.84;5067149;28;20200;-66
2021/04/14 11:39:59;;;;;;;3.20;2.03;;;;;;;8.27;61.77;102155.13;5066688;28;20216;-66